sensor_id;sensor_type;location;lat;lon;timestamp;pressure;altitude;pressure_sealevel;temperature;humidity
8756;BME280;4414;42.670;23.228;2024-03-02T00:01:14;92538.28;;;6.23;78.57
8756;BME280;4414;42.670;23.228;2024-03-02T00:03:39;92545.75;;;6.24;78.64
8756;BME280;4414;42.670;23.228;2024-03-02T00:06:06;92555.69;;;6.24;78.56
8756;BME280;4414;42.670;23.228;2024-03-02T00:08:32;92557.06;;;6.30;78.78
8756;BME280;4414;42.670;23.228;2024-03-02T00:10:59;92565.91;;;6.38;78.01
8756;BME280;4414;42.670;23.228;2024-03-02T00:13:25;92569.00;;;6.42;79.09
8756;BME280;4414;42.670;23.228;2024-03-02T00:15:54;92565.53;;;6.47;78.32
8756;BME280;4414;42.670;23.228;2024-03-02T00:18:25;92566.38;;;6.55;77.27
8756;BME280;4414;42.670;23.228;2024-03-02T00:20:54;92571.69;;;6.55;77.32
8756;BME280;4414;42.670;23.228;2024-03-02T00:23:21;92571.13;;;6.62;78.65
8756;BME280;4414;42.670;23.228;2024-03-02T00:25:49;92571.97;;;6.70;78.50
8756;BME280;4414;42.670;23.228;2024-03-02T00:28:33;92574.78;;;6.78;77.25
8756;BME280;4414;42.670;23.228;2024-03-02T00:33:30;92563.53;;;6.85;76.88
8756;BME280;4414;42.670;23.228;2024-03-02T00:35:57;92568.34;;;6.86;76.21
8756;BME280;4414;42.670;23.228;2024-03-02T00:38:22;92559.41;;;6.84;74.99
8756;BME280;4414;42.670;23.228;2024-03-02T00:40:48;92557.69;;;6.86;76.14
8756;BME280;4414;42.670;23.228;2024-03-02T00:46:04;92554.00;;;6.89;75.94
8756;BME280;4414;42.670;23.228;2024-03-02T00:48:30;92553.78;;;6.87;75.58
8756;BME280;4414;42.670;23.228;2024-03-02T00:50:57;92551.31;;;6.89;76.13
8756;BME280;4414;42.670;23.228;2024-03-02T00:53:24;92557.69;;;6.86;76.74
8756;BME280;4414;42.670;23.228;2024-03-02T00:55:51;92560.78;;;6.91;76.21
8756;BME280;4414;42.670;23.228;2024-03-02T00:58:17;92559.97;;;6.96;76.05
8756;BME280;4414;42.670;23.228;2024-03-02T01:00:42;92555.03;;;7.00;76.17
8756;BME280;4414;42.670;23.228;2024-03-02T01:03:08;92559.16;;;7.01;76.87
8756;BME280;4414;42.670;23.228;2024-03-02T01:05:33;92549.91;;;7.02;75.99
8756;BME280;4414;42.670;23.228;2024-03-02T01:08:00;92556.28;;;6.99;77.55
8756;BME280;4414;42.670;23.228;2024-03-02T01:10:25;92553.53;;;7.04;76.81
8756;BME280;4414;42.670;23.228;2024-03-02T01:12:53;92545.41;;;6.97;76.70
8756;BME280;4414;42.670;23.228;2024-03-02T01:15:19;92547.44;;;6.91;77.43
8756;BME280;4414;42.670;23.228;2024-03-02T01:17:44;92549.28;;;6.96;77.27
8756;BME280;4414;42.670;23.228;2024-03-02T01:20:10;92548.28;;;6.99;77.27
8756;BME280;4414;42.670;23.228;2024-03-02T01:22:36;92542.63;;;6.89;77.89
8756;BME280;4414;42.670;23.228;2024-03-02T01:25:02;92530.31;;;6.86;78.50
8756;BME280;4414;42.670;23.228;2024-03-02T01:27:28;92538.84;;;6.98;77.30
8756;BME280;4414;42.670;23.228;2024-03-02T01:29:53;92519.47;;;6.97;76.66
8756;BME280;4414;42.670;23.228;2024-03-02T01:32:19;92536.16;;;6.84;78.01
8756;BME280;4414;42.670;23.228;2024-03-02T01:34:45;92525.84;;;6.75;78.05
8756;BME280;4414;42.670;23.228;2024-03-02T01:37:10;92525.78;;;6.81;78.43
8756;BME280;4414;42.670;23.228;2024-03-02T01:39:36;92524.47;;;6.87;77.89
8756;BME280;4414;42.670;23.228;2024-03-02T01:42:01;92519.75;;;6.94;77.95
8756;BME280;4414;42.670;23.228;2024-03-02T01:44:27;92521.94;;;6.95;78.40
8756;BME280;4414;42.670;23.228;2024-03-02T01:46:52;92519.75;;;6.94;78.64
8756;BME280;4414;42.670;23.228;2024-03-02T01:49:17;92523.59;;;6.66;78.54
8756;BME280;4414;42.670;23.228;2024-03-02T01:51:44;92515.69;;;6.61;78.63
8756;BME280;4414;42.670;23.228;2024-03-02T01:54:09;92521.94;;;6.63;79.63
8756;BME280;4414;42.670;23.228;2024-03-02T01:56:35;92519.75;;;6.49;79.15
8756;BME280;4414;42.670;23.228;2024-03-02T01:59:00;92512.22;;;6.47;79.53
8756;BME280;4414;42.670;23.228;2024-03-02T02:01:26;92515.31;;;6.51;79.17
8756;BME280;4414;42.670;23.228;2024-03-02T02:03:51;92522.75;;;6.40;80.24
8756;BME280;4414;42.670;23.228;2024-03-02T02:06:17;92514.69;;;6.45;79.70
8756;BME280;4414;42.670;23.228;2024-03-02T02:08:43;92515.84;;;6.50;79.47
8756;BME280;4414;42.670;23.228;2024-03-02T02:11:08;92512.53;;;6.44;78.50
8756;BME280;4414;42.670;23.228;2024-03-02T02:13:34;92513.19;;;6.50;78.64
8756;BME280;4414;42.670;23.228;2024-03-02T02:16:09;92513.09;;;6.55;79.37
8756;BME280;4414;42.670;23.228;2024-03-02T02:18:35;92516.81;;;6.65;79.58
8756;BME280;4414;42.670;23.228;2024-03-02T02:21:01;92514.06;;;6.71;79.16
8756;BME280;4414;42.670;23.228;2024-03-02T02:23:27;92522.56;;;6.69;78.79
8756;BME280;4414;42.670;23.228;2024-03-02T02:25:52;92511.09;;;6.43;79.93
8756;BME280;4414;42.670;23.228;2024-03-02T02:28:17;92512.44;;;6.49;80.08
8756;BME280;4414;42.670;23.228;2024-03-02T02:30:43;92513.69;;;6.48;79.92
8756;BME280;4414;42.670;23.228;2024-03-02T02:33:08;92517.16;;;6.43;80.23
8756;BME280;4414;42.670;23.228;2024-03-02T02:35:34;92512.19;;;6.53;79.39
8756;BME280;4414;42.670;23.228;2024-03-02T02:38:00;92513.50;;;6.59;80.10
8756;BME280;4414;42.670;23.228;2024-03-02T02:40:26;92512.50;;;6.62;79.51
8756;BME280;4414;42.670;23.228;2024-03-02T02:42:54;92518.03;;;6.64;79.72
8756;BME280;4414;42.670;23.228;2024-03-02T02:45:20;92516.94;;;6.41;80.22
8756;BME280;4414;42.670;23.228;2024-03-02T02:47:45;92521.34;;;6.39;80.48
8756;BME280;4414;42.670;23.228;2024-03-02T02:50:11;92521.34;;;6.20;81.06
8756;BME280;4414;42.670;23.228;2024-03-02T02:52:38;92516.53;;;6.19;81.69
8756;BME280;4414;42.670;23.228;2024-03-02T02:55:06;92516.19;;;6.09;82.85
8756;BME280;4414;42.670;23.228;2024-03-02T02:57:33;92514.94;;;6.10;82.57
8756;BME280;4414;42.670;23.228;2024-03-02T03:00:06;92517.41;;;6.08;81.84
8756;BME280;4414;42.670;23.228;2024-03-02T03:02:36;92517.47;;;6.03;82.33
8756;BME280;4414;42.670;23.228;2024-03-02T03:05:02;92519.63;;;6.04;82.28
8756;BME280;4414;42.670;23.228;2024-03-02T03:07:27;92520.88;;;6.03;81.88
8756;BME280;4414;42.670;23.228;2024-03-02T03:09:53;92513.88;;;6.00;82.53
8756;BME280;4414;42.670;23.228;2024-03-02T03:12:18;92519.94;;;6.00;82.17
8756;BME280;4414;42.670;23.228;2024-03-02T03:14:43;92520.13;;;6.03;82.33
8756;BME280;4414;42.670;23.228;2024-03-02T03:17:09;92516.09;;;5.96;83.06
8756;BME280;4414;42.670;23.228;2024-03-02T03:19:34;92519.63;;;6.04;82.00
8756;BME280;4414;42.670;23.228;2024-03-02T03:22:01;92517.19;;;6.06;82.58
8756;BME280;4414;42.670;23.228;2024-03-02T03:24:26;92512.88;;;6.03;82.38
8756;BME280;4414;42.670;23.228;2024-03-02T03:26:52;92515.88;;;5.94;83.34
8756;BME280;4414;42.670;23.228;2024-03-02T03:29:17;92513.88;;;6.00;83.40
8756;BME280;4414;42.670;23.228;2024-03-02T03:31:42;92514.94;;;5.91;83.63
8756;BME280;4414;42.670;23.228;2024-03-02T03:34:08;92519.50;;;5.96;82.74
8756;BME280;4414;42.670;23.228;2024-03-02T03:36:33;92526.19;;;6.03;83.25
8756;BME280;4414;42.670;23.228;2024-03-02T03:38:58;92518.91;;;6.22;81.95
8756;BME280;4414;42.670;23.228;2024-03-02T03:41:24;92516.88;;;6.28;81.83
8756;BME280;4414;42.670;23.228;2024-03-02T03:43:49;92518.25;;;6.35;81.88
8756;BME280;4414;42.670;23.228;2024-03-02T03:46:15;92521.34;;;6.39;82.01
8756;BME280;4414;42.670;23.228;2024-03-02T03:48:40;92520.81;;;6.40;81.62
8756;BME280;4414;42.670;23.228;2024-03-02T03:51:07;92522.72;;;6.27;81.89
8756;BME280;4414;42.670;23.228;2024-03-02T03:53:32;92523.66;;;6.29;82.41
8756;BME280;4414;42.670;23.228;2024-03-02T03:55:57;92518.75;;;6.33;81.73
8756;BME280;4414;42.670;23.228;2024-03-02T03:58:23;92519.47;;;6.34;81.96
8756;BME280;4414;42.670;23.228;2024-03-02T04:00:48;92520.47;;;6.31;82.35
8756;BME280;4414;42.670;23.228;2024-03-02T04:03:14;92523.72;;;6.24;81.47
8756;BME280;4414;42.670;23.228;2024-03-02T04:05:39;92511.28;;;6.13;82.57
8756;BME280;4414;42.670;23.228;2024-03-02T04:08:04;92516.31;;;5.98;83.12
8756;BME280;4414;42.670;23.228;2024-03-02T04:10:30;92510.00;;;6.01;83.01
8756;BME280;4414;42.670;23.228;2024-03-02T04:12:55;92515.25;;;5.88;84.24
8756;BME280;4414;42.670;23.228;2024-03-02T04:15:21;92524.34;;;5.74;84.81
8756;BME280;4414;42.670;23.228;2024-03-02T04:17:48;92514.59;;;5.58;85.76
8756;BME280;4414;42.670;23.228;2024-03-02T04:20:13;92517.25;;;5.58;86.46
8756;BME280;4414;42.670;23.228;2024-03-02T04:22:39;92516.34;;;5.74;85.37
8756;BME280;4414;42.670;23.228;2024-03-02T04:25:04;92520.38;;;5.80;84.51
8756;BME280;4414;42.670;23.228;2024-03-02T04:27:31;92515.56;;;5.79;84.67
8756;BME280;4414;42.670;23.228;2024-03-02T04:29:57;92515.63;;;5.73;84.85
8756;BME280;4414;42.670;23.228;2024-03-02T04:32:23;92519.09;;;5.68;85.67
8756;BME280;4414;42.670;23.228;2024-03-02T04:34:48;92517.28;;;5.76;84.76
8756;BME280;4414;42.670;23.228;2024-03-02T04:37:14;92519.13;;;5.87;84.61
8756;BME280;4414;42.670;23.228;2024-03-02T04:39:39;92521.81;;;5.81;84.51
8756;BME280;4414;42.670;23.228;2024-03-02T04:42:05;92525.66;;;5.86;84.78
8756;BME280;4414;42.670;23.228;2024-03-02T04:44:30;92524.94;;;5.85;84.23
8756;BME280;4414;42.670;23.228;2024-03-02T04:46:56;92525.16;;;5.87;84.73
8756;BME280;4414;42.670;23.228;2024-03-02T04:49:21;92523.88;;;5.94;84.48
8756;BME280;4414;42.670;23.228;2024-03-02T04:51:46;92530.28;;;6.04;84.30
8756;BME280;4414;42.670;23.228;2024-03-02T04:54:12;92526.97;;;5.98;84.38
8756;BME280;4414;42.670;23.228;2024-03-02T04:56:39;92528.53;;;5.88;84.90
8756;BME280;4414;42.670;23.228;2024-03-02T04:59:04;92523.09;;;5.99;84.50
8756;BME280;4414;42.670;23.228;2024-03-02T05:01:30;92533.44;;;5.84;84.50
8756;BME280;4414;42.670;23.228;2024-03-02T05:03:55;92528.69;;;5.95;84.29
8756;BME280;4414;42.670;23.228;2024-03-02T05:06:21;92529.34;;;6.01;84.64
8756;BME280;4414;42.670;23.228;2024-03-02T05:08:47;92528.00;;;5.95;85.05
8756;BME280;4414;42.670;23.228;2024-03-02T05:11:13;92537.63;;;5.98;83.90
8756;BME280;4414;42.670;23.228;2024-03-02T05:13:57;92541.66;;;6.05;83.44
8756;BME280;4414;42.670;23.228;2024-03-02T05:16:22;92534.09;;;6.09;83.72
8756;BME280;4414;42.670;23.228;2024-03-02T05:18:48;92539.78;;;6.18;83.78
8756;BME280;4414;42.670;23.228;2024-03-02T05:21:13;92535.97;;;6.14;83.17
8756;BME280;4414;42.670;23.228;2024-03-02T05:23:38;92543.00;;;5.92;83.62
8756;BME280;4414;42.670;23.228;2024-03-02T05:26:04;92545.47;;;5.90;84.81
8756;BME280;4414;42.670;23.228;2024-03-02T05:28:29;92539.78;;;5.99;84.55
8756;BME280;4414;42.670;23.228;2024-03-02T05:30:55;92549.13;;;6.06;85.25
8756;BME280;4414;42.670;23.228;2024-03-02T05:33:21;92548.13;;;6.09;84.23
8756;BME280;4414;42.670;23.228;2024-03-02T05:35:48;92548.69;;;6.02;83.51
8756;BME280;4414;42.670;23.228;2024-03-02T05:38:15;92547.34;;;6.14;83.89
8756;BME280;4414;42.670;23.228;2024-03-02T05:40:41;92552.16;;;6.16;83.57
8756;BME280;4414;42.670;23.228;2024-03-02T05:43:06;92557.63;;;6.23;84.17
8756;BME280;4414;42.670;23.228;2024-03-02T05:45:32;92560.44;;;6.12;84.41
8756;BME280;4414;42.670;23.228;2024-03-02T05:47:57;92565.69;;;6.18;83.89
8756;BME280;4414;42.670;23.228;2024-03-02T05:50:23;92568.50;;;6.25;83.85
8756;BME280;4414;42.670;23.228;2024-03-02T05:52:48;92562.44;;;6.06;85.02
8756;BME280;4414;42.670;23.228;2024-03-02T05:55:14;92568.00;;;6.08;84.62
8756;BME280;4414;42.670;23.228;2024-03-02T05:57:40;92572.81;;;5.91;84.95
8756;BME280;4414;42.670;23.228;2024-03-02T06:00:09;92566.69;;;5.96;85.70
8756;BME280;4414;42.670;23.228;2024-03-02T06:02:34;92560.59;;;6.01;85.37
8756;BME280;4414;42.670;23.228;2024-03-02T06:05:00;92570.72;;;6.03;85.46
8756;BME280;4414;42.670;23.228;2024-03-02T06:07:26;92569.16;;;6.13;84.88
8756;BME280;4414;42.670;23.228;2024-03-02T06:09:51;92568.63;;;6.14;84.40
8756;BME280;4414;42.670;23.228;2024-03-02T06:12:18;92577.28;;;6.20;84.16
8756;BME280;4414;42.670;23.228;2024-03-02T06:14:44;92564.47;;;6.19;84.57
8756;BME280;4414;42.670;23.228;2024-03-02T06:17:09;92576.34;;;6.18;84.53
8756;BME280;4414;42.670;23.228;2024-03-02T06:19:34;92578.06;;;6.15;84.68
8756;BME280;4414;42.670;23.228;2024-03-02T06:22:00;92568.41;;;5.93;85.71
8756;BME280;4414;42.670;23.228;2024-03-02T06:24:25;92569.13;;;5.94;86.02
8756;BME280;4414;42.670;23.228;2024-03-02T06:26:51;92569.50;;;6.03;85.50
8756;BME280;4414;42.670;23.228;2024-03-02T06:29:17;92581.44;;;6.16;85.47
8756;BME280;4414;42.670;23.228;2024-03-02T06:31:42;92576.06;;;6.21;85.23
8756;BME280;4414;42.670;23.228;2024-03-02T06:34:08;92574.47;;;6.31;84.14
8756;BME280;4414;42.670;23.228;2024-03-02T06:36:34;92575.13;;;6.37;84.58
8756;BME280;4414;42.670;23.228;2024-03-02T06:38:59;92584.38;;;6.49;84.20
8756;BME280;4414;42.670;23.228;2024-03-02T06:41:25;92575.41;;;6.52;83.63
8756;BME280;4414;42.670;23.228;2024-03-02T06:43:51;92584.25;;;6.60;83.60
8756;BME280;4414;42.670;23.228;2024-03-02T06:46:24;92581.91;;;6.70;82.97
8756;BME280;4414;42.670;23.228;2024-03-02T06:48:50;92589.78;;;6.62;82.65
8756;BME280;4414;42.670;23.228;2024-03-02T06:51:15;92588.53;;;6.63;82.95
8756;BME280;4414;42.670;23.228;2024-03-02T06:53:43;92595.13;;;6.62;83.44
8756;BME280;4414;42.670;23.228;2024-03-02T06:56:09;92590.13;;;6.53;83.56
8756;BME280;4414;42.670;23.228;2024-03-02T06:58:34;92590.34;;;6.55;83.93
8756;BME280;4414;42.670;23.228;2024-03-02T07:01:00;92598.56;;;6.57;83.68
8756;BME280;4414;42.670;23.228;2024-03-02T07:03:28;92590.34;;;6.55;84.46
8756;BME280;4414;42.670;23.228;2024-03-02T07:05:53;92602.69;;;6.58;83.64
8756;BME280;4414;42.670;23.228;2024-03-02T07:08:19;92596.34;;;6.43;83.57
8756;BME280;4414;42.670;23.228;2024-03-02T07:10:44;92594.78;;;6.34;85.02
8756;BME280;4414;42.670;23.228;2024-03-02T07:13:09;92603.41;;;6.40;84.79
8756;BME280;4414;42.670;23.228;2024-03-02T07:15:35;92603.03;;;6.49;85.34
8756;BME280;4414;42.670;23.228;2024-03-02T07:18:03;92603.69;;;6.55;84.67
8756;BME280;4414;42.670;23.228;2024-03-02T07:20:29;92596.63;;;6.58;83.94
8756;BME280;4414;42.670;23.228;2024-03-02T07:22:55;92600.75;;;6.59;84.30
8756;BME280;4414;42.670;23.228;2024-03-02T07:25:20;92607.00;;;6.61;82.86
8756;BME280;4414;42.670;23.228;2024-03-02T07:27:45;92608.13;;;6.66;83.61
8756;BME280;4414;42.670;23.228;2024-03-02T07:30:14;92604.41;;;6.74;83.18
8756;BME280;4414;42.670;23.228;2024-03-02T07:32:41;92605.59;;;6.73;82.78
8756;BME280;4414;42.670;23.228;2024-03-02T07:35:11;92612.53;;;6.82;83.41
8756;BME280;4414;42.670;23.228;2024-03-02T07:37:37;92609.63;;;6.80;83.16
8756;BME280;4414;42.670;23.228;2024-03-02T07:40:02;92612.16;;;6.91;82.74
8756;BME280;4414;42.670;23.228;2024-03-02T07:42:28;92611.44;;;6.91;83.89
8756;BME280;4414;42.670;23.228;2024-03-02T07:44:54;92613.75;;;6.81;81.71
8756;BME280;4414;42.670;23.228;2024-03-02T07:47:19;92613.66;;;6.86;81.93
8756;BME280;4414;42.670;23.228;2024-03-02T07:49:45;92614.72;;;6.97;81.78
8756;BME280;4414;42.670;23.228;2024-03-02T07:52:11;92614.84;;;7.04;82.49
8756;BME280;4414;42.670;23.228;2024-03-02T07:54:37;92617.44;;;7.10;81.45
8756;BME280;4414;42.670;23.228;2024-03-02T07:57:03;92617.44;;;7.10;82.85
8756;BME280;4414;42.670;23.228;2024-03-02T07:59:28;92618.69;;;7.22;81.68
8756;BME280;4414;42.670;23.228;2024-03-02T08:01:54;92624.25;;;7.24;81.09
8756;BME280;4414;42.670;23.228;2024-03-02T08:04:20;92621.00;;;7.31;80.82
8756;BME280;4414;42.670;23.228;2024-03-02T08:06:45;92627.75;;;7.32;81.18
8756;BME280;4414;42.670;23.228;2024-03-02T08:09:11;92627.78;;;7.45;81.00
8756;BME280;4414;42.670;23.228;2024-03-02T08:11:36;92624.09;;;7.48;80.75
8756;BME280;4414;42.670;23.228;2024-03-02T08:14:05;92627.09;;;7.57;81.15
8756;BME280;4414;42.670;23.228;2024-03-02T08:16:30;92627.72;;;7.63;80.00
8756;BME280;4414;42.670;23.228;2024-03-02T08:18:56;92625.66;;;7.56;79.58
8756;BME280;4414;42.670;23.228;2024-03-02T08:21:23;92628.44;;;7.64;80.12
8756;BME280;4414;42.670;23.228;2024-03-02T08:23:49;92630.88;;;7.49;81.03
8756;BME280;4414;42.670;23.228;2024-03-02T08:26:14;92626.97;;;7.50;81.45
8756;BME280;4414;42.670;23.228;2024-03-02T08:28:40;92636.22;;;7.62;81.32
8756;BME280;4414;42.670;23.228;2024-03-02T08:31:08;92633.50;;;7.36;82.08
8756;BME280;4414;42.670;23.228;2024-03-02T08:33:33;92632.34;;;7.18;82.71
8756;BME280;4414;42.670;23.228;2024-03-02T08:35:59;92627.59;;;7.11;82.95
8756;BME280;4414;42.670;23.228;2024-03-02T08:38:25;92628.41;;;7.06;83.19
8756;BME280;4414;42.670;23.228;2024-03-02T08:40:50;92630.97;;;7.12;83.06
8756;BME280;4414;42.670;23.228;2024-03-02T08:43:16;92630.63;;;7.02;83.14
8756;BME280;4414;42.670;23.228;2024-03-02T08:45:42;92634.19;;;6.92;83.88
8756;BME280;4414;42.670;23.228;2024-03-02T08:48:08;92635.00;;;6.86;83.46
8756;BME280;4414;42.670;23.228;2024-03-02T08:50:34;92640.41;;;6.81;84.42
8756;BME280;4414;42.670;23.228;2024-03-02T08:52:59;92633.50;;;6.72;83.88
8756;BME280;4414;42.670;23.228;2024-03-02T08:55:25;92633.06;;;6.87;83.57
8756;BME280;4414;42.670;23.228;2024-03-02T08:57:50;92630.09;;;6.91;83.69
8756;BME280;4414;42.670;23.228;2024-03-02T09:00:16;92632.16;;;6.98;84.27
8756;BME280;4414;42.670;23.228;2024-03-02T09:02:45;92633.84;;;7.14;83.47
8756;BME280;4414;42.670;23.228;2024-03-02T09:05:11;92642.91;;;7.24;83.83
8756;BME280;4414;42.670;23.228;2024-03-02T09:07:36;92637.22;;;7.33;82.75
8756;BME280;4414;42.670;23.228;2024-03-02T09:10:04;92636.38;;;7.38;81.69
8756;BME280;4414;42.670;23.228;2024-03-02T09:12:33;92635.44;;;7.22;81.38
8756;BME280;4414;42.670;23.228;2024-03-02T09:15:00;92647.81;;;7.20;80.74
8756;BME280;4414;42.670;23.228;2024-03-02T09:17:26;92647.25;;;7.27;80.37
8756;BME280;4414;42.670;23.228;2024-03-02T09:19:51;92654.44;;;7.32;82.06
8756;BME280;4414;42.670;23.228;2024-03-02T09:22:18;92651.47;;;7.35;81.34
8756;BME280;4414;42.670;23.228;2024-03-02T09:24:47;92655.47;;;7.29;80.38
8756;BME280;4414;42.670;23.228;2024-03-02T09:27:12;92657.94;;;7.40;81.79
8756;BME280;4414;42.670;23.228;2024-03-02T09:29:38;92656.53;;;7.52;80.66
8756;BME280;4414;42.670;23.228;2024-03-02T09:32:08;92654.13;;;7.67;79.84
8756;BME280;4414;42.670;23.228;2024-03-02T09:34:33;92657.94;;;7.71;79.06
8756;BME280;4414;42.670;23.228;2024-03-02T09:36:59;92653.59;;;7.68;80.59
8756;BME280;4414;42.670;23.228;2024-03-02T09:39:25;92663.25;;;7.71;79.41
8756;BME280;4414;42.670;23.228;2024-03-02T09:41:51;92655.97;;;7.72;79.41
8756;BME280;4414;42.670;23.228;2024-03-02T10:16:32;92654.84;;;8.20;78.01
8756;BME280;4414;42.670;23.228;2024-03-02T10:18:58;92656.50;;;8.10;79.24
8756;BME280;4414;42.670;23.228;2024-03-02T10:21:23;92650.66;;;8.11;79.46
8756;BME280;4414;42.670;23.228;2024-03-02T10:23:50;92653.00;;;7.89;79.76
8756;BME280;4414;42.670;23.228;2024-03-02T10:26:19;92653.63;;;8.08;80.68
8756;BME280;4414;42.670;23.228;2024-03-02T10:28:47;92650.66;;;7.85;80.30
8756;BME280;4414;42.670;23.228;2024-03-02T10:31:13;92652.47;;;7.90;81.12
8756;BME280;4414;42.670;23.228;2024-03-02T10:33:40;92658.66;;;7.98;80.31
8756;BME280;4414;42.670;23.228;2024-03-02T10:36:08;92662.38;;;7.95;80.84
8756;BME280;4414;42.670;23.228;2024-03-02T10:38:35;92648.38;;;8.02;80.84
8756;BME280;4414;42.670;23.228;2024-03-02T10:41:03;92654.94;;;7.88;80.08
8756;BME280;4414;42.670;23.228;2024-03-02T10:43:29;92649.59;;;7.75;79.45
8756;BME280;4414;42.670;23.228;2024-03-02T10:45:56;92650.97;;;7.50;81.79
8756;BME280;4414;42.670;23.228;2024-03-02T10:48:24;92646.63;;;7.65;82.10
8756;BME280;4414;42.670;23.228;2024-03-02T10:50:50;92646.22;;;7.74;81.90
8756;BME280;4414;42.670;23.228;2024-03-02T10:53:16;92648.56;;;7.78;81.15
8756;BME280;4414;42.670;23.228;2024-03-02T10:55:42;92642.28;;;7.75;80.44
8756;BME280;4414;42.670;23.228;2024-03-02T10:58:11;92647.75;;;7.70;79.67
8756;BME280;4414;42.670;23.228;2024-03-02T11:00:38;92650.09;;;7.73;81.34
8756;BME280;4414;42.670;23.228;2024-03-02T11:03:07;92643.53;;;7.88;80.91
8756;BME280;4414;42.670;23.228;2024-03-02T11:05:38;92640.66;;;7.86;80.30
8756;BME280;4414;42.670;23.228;2024-03-02T11:08:13;92641.19;;;7.97;79.68
8756;BME280;4414;42.670;23.228;2024-03-02T11:10:45;92635.84;;;7.71;78.94
8756;BME280;4414;42.670;23.228;2024-03-02T11:13:13;92639.34;;;7.79;79.22
8756;BME280;4414;42.670;23.228;2024-03-02T11:15:45;92635.53;;;7.88;79.91
8756;BME280;4414;42.670;23.228;2024-03-02T11:18:11;92637.16;;;7.78;79.95
8756;BME280;4414;42.670;23.228;2024-03-02T11:20:38;92629.88;;;7.78;79.77
8756;BME280;4414;42.670;23.228;2024-03-02T11:23:08;92625.88;;;7.71;80.04
8756;BME280;4414;42.670;23.228;2024-03-02T11:25:35;92635.22;;;7.65;80.50
8756;BME280;4414;42.670;23.228;2024-03-02T11:28:02;92637.28;;;7.72;81.02
8756;BME280;4414;42.670;23.228;2024-03-02T11:33:06;92625.78;;;7.77;80.96
8756;BME280;4414;42.670;23.228;2024-03-02T11:35:44;92625.78;;;7.90;81.65
8756;BME280;4414;42.670;23.228;2024-03-02T11:38:14;92635.88;;;7.97;80.13
8756;BME280;4414;42.670;23.228;2024-03-02T11:40:40;92623.72;;;7.96;80.39
8756;BME280;4414;42.670;23.228;2024-03-02T11:43:06;92625.47;;;7.94;79.95
8756;BME280;4414;42.670;23.228;2024-03-02T11:45:33;92625.38;;;7.99;80.17
8756;BME280;4414;42.670;23.228;2024-03-02T11:47:59;92625.59;;;8.01;79.87
8756;BME280;4414;42.670;23.228;2024-03-02T11:50:29;92628.88;;;8.07;80.15
8756;BME280;4414;42.670;23.228;2024-03-02T11:52:56;92624.88;;;8.01;79.04
8756;BME280;4414;42.670;23.228;2024-03-02T11:55:21;92628.75;;;8.13;79.32
8756;BME280;4414;42.670;23.228;2024-03-02T11:57:48;92631.34;;;8.05;79.68
8756;BME280;4414;42.670;23.228;2024-03-02T12:00:18;92625.69;;;8.09;80.23
8756;BME280;4414;42.670;23.228;2024-03-02T12:02:46;92631.31;;;8.18;79.71
8756;BME280;4414;42.670;23.228;2024-03-02T12:05:15;92632.97;;;8.21;80.72
8756;BME280;4414;42.670;23.228;2024-03-02T12:07:42;92626.19;;;8.20;80.13
8756;BME280;4414;42.670;23.228;2024-03-02T12:10:08;92623.31;;;8.18;80.20
8756;BME280;4414;42.670;23.228;2024-03-02T12:12:34;92626.81;;;8.13;80.13
8756;BME280;4414;42.670;23.228;2024-03-02T12:14:59;92627.09;;;8.10;80.60
8756;BME280;4414;42.670;23.228;2024-03-02T12:17:25;92624.63;;;8.12;80.64
8756;BME280;4414;42.670;23.228;2024-03-02T12:19:51;92623.41;;;8.00;81.36
8756;BME280;4414;42.670;23.228;2024-03-02T12:22:17;92629.38;;;8.06;81.14
8756;BME280;4414;42.670;23.228;2024-03-02T12:24:43;92630.09;;;8.19;81.43
8756;BME280;4414;42.670;23.228;2024-03-02T12:27:11;92629.25;;;8.24;81.22
8756;BME280;4414;42.670;23.228;2024-03-02T12:29:38;92626.41;;;8.35;79.24
8756;BME280;4414;42.670;23.228;2024-03-02T12:32:05;92630.38;;;8.42;79.07
8756;BME280;4414;42.670;23.228;2024-03-02T12:34:30;92626.81;;;8.39;79.88
8756;BME280;4414;42.670;23.228;2024-03-02T12:36:56;92622.56;;;8.44;79.84
8756;BME280;4414;42.670;23.228;2024-03-02T12:39:22;92617.44;;;8.46;79.42
8756;BME280;4414;42.670;23.228;2024-03-02T12:41:49;92626.59;;;8.50;79.13
8756;BME280;4414;42.670;23.228;2024-03-02T12:44:18;92632.97;;;8.47;79.36
8756;BME280;4414;42.670;23.228;2024-03-02T12:46:44;92632.13;;;8.52;78.47
8756;BME280;4414;42.670;23.228;2024-03-02T12:49:14;92636.34;;;8.61;78.13
8756;BME280;4414;42.670;23.228;2024-03-02T12:51:43;92624.50;;;8.56;77.56
8756;BME280;4414;42.670;23.228;2024-03-02T12:54:10;92632.88;;;8.40;77.69
8756;BME280;4414;42.670;23.228;2024-03-02T12:56:36;92624.03;;;8.45;78.10
8756;BME280;4414;42.670;23.228;2024-03-02T12:59:05;92632.88;;;8.40;77.81
8756;BME280;4414;42.670;23.228;2024-03-02T13:01:31;92631.16;;;8.29;78.91
8756;BME280;4414;42.670;23.228;2024-03-02T13:03:58;92635.56;;;8.27;77.61
8756;BME280;4414;42.670;23.228;2024-03-02T13:06:25;92638.97;;;8.27;79.88
8756;BME280;4414;42.670;23.228;2024-03-02T13:08:54;92633.41;;;8.25;79.85
8756;BME280;4414;42.670;23.228;2024-03-02T13:11:21;92632.47;;;8.36;79.58
8756;BME280;4414;42.670;23.228;2024-03-02T13:13:47;92635.03;;;8.41;78.96
8756;BME280;4414;42.670;23.228;2024-03-02T13:16:12;92637.91;;;8.43;78.99
8756;BME280;4414;42.670;23.228;2024-03-02T13:18:41;92635.66;;;8.34;78.87
8756;BME280;4414;42.670;23.228;2024-03-02T13:21:08;92636.78;;;8.26;79.14
8756;BME280;4414;42.670;23.228;2024-03-02T13:23:34;92632.97;;;8.21;79.78
8756;BME280;4414;42.670;23.228;2024-03-02T13:25:59;92642.00;;;8.18;80.17
8756;BME280;4414;42.670;23.228;2024-03-02T13:28:25;92642.13;;;8.26;79.94
8756;BME280;4414;42.670;23.228;2024-03-02T13:30:51;92636.09;;;8.25;79.21
8756;BME280;4414;42.670;23.228;2024-03-02T13:33:16;92639.66;;;8.15;79.32
8756;BME280;4414;42.670;23.228;2024-03-02T13:35:51;92643.03;;;8.02;80.92
8756;BME280;4414;42.670;23.228;2024-03-02T13:38:18;92641.09;;;8.03;79.59
8756;BME280;4414;42.670;23.228;2024-03-02T13:40:44;92647.56;;;7.94;80.09
8756;BME280;4414;42.670;23.228;2024-03-02T13:43:09;92649.53;;;8.07;79.82
8756;BME280;4414;42.670;23.228;2024-03-02T13:45:35;92653.53;;;8.13;81.16
8756;BME280;4414;42.670;23.228;2024-03-02T13:48:01;92652.81;;;8.13;80.76
8756;BME280;4414;42.670;23.228;2024-03-02T13:50:28;92645.63;;;8.21;80.21
8756;BME280;4414;42.670;23.228;2024-03-02T13:52:55;92653.94;;;8.30;79.13
8756;BME280;4414;42.670;23.228;2024-03-02T13:55:21;92660.22;;;8.33;78.85
8756;BME280;4414;42.670;23.228;2024-03-02T13:57:46;92656.22;;;8.26;79.20